sensor_id;sensor_type;location;lat;lon;timestamp;P1;durP1;ratioP1;P2;durP2;ratioP2
51618;SDS011;38518;53.164;5.430;2023-12-20T00:01:35;25.17;;;4.68;;
51618;SDS011;38518;53.164;5.430;2023-12-20T00:04:02;22.15;;;5.07;;
51618;SDS011;38518;53.164;5.430;2023-12-20T00:06:29;28.58;;;6.63;;
51618;SDS011;38518;53.164;5.430;2023-12-20T00:08:55;20.23;;;6.00;;
51618;SDS011;38518;53.164;5.430;2023-12-20T00:11:21;28.95;;;6.97;;
51618;SDS011;38518;53.164;5.430;2023-12-20T00:13:46;26.48;;;5.63;;
51618;SDS011;38518;53.164;5.430;2023-12-20T00:16:12;20.90;;;4.47;;
51618;SDS011;38518;53.164;5.430;2023-12-20T00:18:38;20.60;;;4.93;;
51618;SDS011;38518;53.164;5.430;2023-12-20T00:21:04;28.17;;;6.57;;
51618;SDS011;38518;53.164;5.430;2023-12-20T00:23:30;25.10;;;6.22;;
51618;SDS011;38518;53.164;5.430;2023-12-20T00:25:55;21.80;;;5.00;;
51618;SDS011;38518;53.164;5.430;2023-12-20T00:28:21;23.02;;;4.60;;
51618;SDS011;38518;53.164;5.430;2023-12-20T00:30:48;25.17;;;5.18;;
51618;SDS011;38518;53.164;5.430;2023-12-20T00:33:13;25.83;;;6.22;;
51618;SDS011;38518;53.164;5.430;2023-12-20T00:35:39;26.40;;;6.03;;
51618;SDS011;38518;53.164;5.430;2023-12-20T00:38:05;26.92;;;6.30;;
51618;SDS011;38518;53.164;5.430;2023-12-20T00:40:32;18.05;;;5.30;;
51618;SDS011;38518;53.164;5.430;2023-12-20T00:42:58;33.15;;;7.57;;
51618;SDS011;38518;53.164;5.430;2023-12-20T00:45:24;26.40;;;5.75;;
51618;SDS011;38518;53.164;5.430;2023-12-20T00:47:50;26.63;;;5.93;;
51618;SDS011;38518;53.164;5.430;2023-12-20T00:50:16;22.05;;;5.30;;
51618;SDS011;38518;53.164;5.430;2023-12-20T00:52:41;28.30;;;7.75;;
51618;SDS011;38518;53.164;5.430;2023-12-20T00:55:07;21.92;;;5.30;;
51618;SDS011;38518;53.164;5.430;2023-12-20T00:57:33;25.95;;;7.20;;
51618;SDS011;38518;53.164;5.430;2023-12-20T00:59:59;30.35;;;6.72;;
51618;SDS011;38518;53.164;5.430;2023-12-20T01:02:25;35.38;;;6.28;;
51618;SDS011;38518;53.164;5.430;2023-12-20T01:07:38;30.58;;;5.95;;
51618;SDS011;38518;53.164;5.430;2023-12-20T01:10:04;32.75;;;7.10;;
51618;SDS011;38518;53.164;5.430;2023-12-20T01:12:30;33.38;;;7.53;;
51618;SDS011;38518;53.164;5.430;2023-12-20T01:14:55;26.13;;;6.68;;
51618;SDS011;38518;53.164;5.430;2023-12-20T01:17:21;21.75;;;4.85;;
51618;SDS011;38518;53.164;5.430;2023-12-20T01:19:47;25.90;;;6.57;;
51618;SDS011;38518;53.164;5.430;2023-12-20T01:22:13;27.40;;;5.03;;
51618;SDS011;38518;53.164;5.430;2023-12-20T01:24:38;29.92;;;6.90;;
51618;SDS011;38518;53.164;5.430;2023-12-20T01:27:04;24.88;;;6.13;;
51618;SDS011;38518;53.164;5.430;2023-12-20T01:29:30;26.27;;;6.60;;
51618;SDS011;38518;53.164;5.430;2023-12-20T01:31:56;25.45;;;6.18;;
51618;SDS011;38518;53.164;5.430;2023-12-20T01:34:22;29.08;;;7.75;;
51618;SDS011;38518;53.164;5.430;2023-12-20T01:36:48;23.98;;;6.60;;
51618;SDS011;38518;53.164;5.430;2023-12-20T01:41:58;30.25;;;6.25;;
51618;SDS011;38518;53.164;5.430;2023-12-20T01:44:24;29.00;;;5.93;;
51618;SDS011;38518;53.164;5.430;2023-12-20T01:46:50;29.42;;;7.45;;
51618;SDS011;38518;53.164;5.430;2023-12-20T01:49:15;27.40;;;6.32;;
51618;SDS011;38518;53.164;5.430;2023-12-20T01:51:42;33.28;;;7.30;;
51618;SDS011;38518;53.164;5.430;2023-12-20T01:54:08;31.85;;;5.88;;
51618;SDS011;38518;53.164;5.430;2023-12-20T01:56:34;29.38;;;7.38;;
51618;SDS011;38518;53.164;5.430;2023-12-20T01:59:00;28.45;;;5.93;;
51618;SDS011;38518;53.164;5.430;2023-12-20T02:01:27;30.23;;;8.13;;
51618;SDS011;38518;53.164;5.430;2023-12-20T02:03:54;21.83;;;5.00;;
51618;SDS011;38518;53.164;5.430;2023-12-20T02:06:29;28.33;;;7.50;;
51618;SDS011;38518;53.164;5.430;2023-12-20T02:11:31;39.15;;;6.07;;
51618;SDS011;38518;53.164;5.430;2023-12-20T02:13:57;33.97;;;7.90;;
51618;SDS011;38518;53.164;5.430;2023-12-20T02:16:22;31.75;;;8.25;;
51618;SDS011;38518;53.164;5.430;2023-12-20T02:18:48;33.45;;;7.97;;
51618;SDS011;38518;53.164;5.430;2023-12-20T02:21:14;28.58;;;8.38;;
51618;SDS011;38518;53.164;5.430;2023-12-20T02:23:40;27.83;;;6.18;;
51618;SDS011;38518;53.164;5.430;2023-12-20T02:26:06;33.10;;;7.13;;
51618;SDS011;38518;53.164;5.430;2023-12-20T02:28:32;30.42;;;8.38;;
51618;SDS011;38518;53.164;5.430;2023-12-20T02:30:58;31.15;;;7.28;;
51618;SDS011;38518;53.164;5.430;2023-12-20T02:33:24;25.20;;;6.40;;
51618;SDS011;38518;53.164;5.430;2023-12-20T02:35:50;29.73;;;7.63;;
51618;SDS011;38518;53.164;5.430;2023-12-20T02:38:17;32.83;;;5.95;;
51618;SDS011;38518;53.164;5.430;2023-12-20T02:40:43;29.40;;;7.07;;
51618;SDS011;38518;53.164;5.430;2023-12-20T02:43:09;32.17;;;7.03;;
51618;SDS011;38518;53.164;5.430;2023-12-20T02:45:35;28.10;;;5.80;;
51618;SDS011;38518;53.164;5.430;2023-12-20T02:50:46;28.63;;;6.97;;
51618;SDS011;38518;53.164;5.430;2023-12-20T02:53:14;32.22;;;7.38;;
51618;SDS011;38518;53.164;5.430;2023-12-20T02:55:40;29.08;;;7.90;;
51618;SDS011;38518;53.164;5.430;2023-12-20T02:58:05;32.05;;;7.70;;
51618;SDS011;38518;53.164;5.430;2023-12-20T03:00:31;23.42;;;5.53;;
51618;SDS011;38518;53.164;5.430;2023-12-20T03:02:57;34.80;;;7.25;;
51618;SDS011;38518;53.164;5.430;2023-12-20T03:05:24;23.98;;;5.85;;
51618;SDS011;38518;53.164;5.430;2023-12-20T03:07:50;26.55;;;5.75;;
51618;SDS011;38518;53.164;5.430;2023-12-20T03:10:16;30.08;;;8.05;;
51618;SDS011;38518;53.164;5.430;2023-12-20T03:12:43;32.85;;;8.65;;
51618;SDS011;38518;53.164;5.430;2023-12-20T03:15:09;30.75;;;7.90;;
51618;SDS011;38518;53.164;5.430;2023-12-20T03:17:35;34.05;;;8.63;;
51618;SDS011;38518;53.164;5.430;2023-12-20T03:20:01;27.10;;;5.82;;
51618;SDS011;38518;53.164;5.430;2023-12-20T03:22:28;31.17;;;6.53;;
51618;SDS011;38518;53.164;5.430;2023-12-20T03:24:53;27.48;;;6.00;;
51618;SDS011;38518;53.164;5.430;2023-12-20T03:27:19;27.52;;;7.22;;
51618;SDS011;38518;53.164;5.430;2023-12-20T03:29:45;32.10;;;7.78;;
51618;SDS011;38518;53.164;5.430;2023-12-20T03:32:11;26.08;;;6.70;;
51618;SDS011;38518;53.164;5.430;2023-12-20T03:34:36;36.65;;;8.70;;
51618;SDS011;38518;53.164;5.430;2023-12-20T03:37:02;35.80;;;7.78;;
51618;SDS011;38518;53.164;5.430;2023-12-20T03:39:28;29.25;;;7.13;;
51618;SDS011;38518;53.164;5.430;2023-12-20T03:41:54;29.13;;;7.70;;
51618;SDS011;38518;53.164;5.430;2023-12-20T03:44:19;36.80;;;7.95;;
51618;SDS011;38518;53.164;5.430;2023-12-20T03:46:45;31.40;;;7.80;;
51618;SDS011;38518;53.164;5.430;2023-12-20T03:49:11;34.58;;;7.88;;
51618;SDS011;38518;53.164;5.430;2023-12-20T03:51:37;32.42;;;6.43;;
51618;SDS011;38518;53.164;5.430;2023-12-20T03:54:03;31.33;;;9.18;;
51618;SDS011;38518;53.164;5.430;2023-12-20T03:56:28;33.10;;;6.30;;
51618;SDS011;38518;53.164;5.430;2023-12-20T03:58:54;35.03;;;8.85;;
51618;SDS011;38518;53.164;5.430;2023-12-20T04:01:20;31.90;;;6.82;;
51618;SDS011;38518;53.164;5.430;2023-12-20T04:03:46;29.52;;;5.60;;
51618;SDS011;38518;53.164;5.430;2023-12-20T04:06:21;25.85;;;7.60;;
51618;SDS011;38518;53.164;5.430;2023-12-20T04:08:47;28.52;;;7.38;;
51618;SDS011;38518;53.164;5.430;2023-12-20T04:11:13;25.95;;;7.75;;
51618;SDS011;38518;53.164;5.430;2023-12-20T04:13:38;31.92;;;8.30;;
51618;SDS011;38518;53.164;5.430;2023-12-20T04:16:04;34.45;;;6.43;;
51618;SDS011;38518;53.164;5.430;2023-12-20T04:18:30;29.38;;;6.40;;
51618;SDS011;38518;53.164;5.430;2023-12-20T04:20:57;26.50;;;6.07;;
51618;SDS011;38518;53.164;5.430;2023-12-20T04:23:22;30.42;;;7.22;;
51618;SDS011;38518;53.164;5.430;2023-12-20T04:25:48;35.85;;;8.68;;
51618;SDS011;38518;53.164;5.430;2023-12-20T04:28:14;31.23;;;6.53;;
51618;SDS011;38518;53.164;5.430;2023-12-20T04:30:40;28.88;;;8.18;;
51618;SDS011;38518;53.164;5.430;2023-12-20T04:33:12;31.65;;;7.50;;
51618;SDS011;38518;53.164;5.430;2023-12-20T04:35:38;32.67;;;7.80;;
51618;SDS011;38518;53.164;5.430;2023-12-20T04:38:05;24.60;;;5.93;;
51618;SDS011;38518;53.164;5.430;2023-12-20T04:40:31;32.35;;;6.78;;
51618;SDS011;38518;53.164;5.430;2023-12-20T04:42:57;40.47;;;9.05;;
51618;SDS011;38518;53.164;5.430;2023-12-20T04:45:23;33.45;;;8.07;;
51618;SDS011;38518;53.164;5.430;2023-12-20T04:47:50;37.40;;;8.50;;
51618;SDS011;38518;53.164;5.430;2023-12-20T04:50:16;31.40;;;6.63;;
51618;SDS011;38518;53.164;5.430;2023-12-20T04:52:42;30.65;;;6.07;;
51618;SDS011;38518;53.164;5.430;2023-12-20T04:55:07;36.88;;;8.85;;
51618;SDS011;38518;53.164;5.430;2023-12-20T04:57:35;29.35;;;7.82;;
51618;SDS011;38518;53.164;5.430;2023-12-20T05:00:00;27.58;;;6.25;;
51618;SDS011;38518;53.164;5.430;2023-12-20T05:02:27;27.75;;;7.07;;
51618;SDS011;38518;53.164;5.430;2023-12-20T05:04:52;28.42;;;6.20;;
51618;SDS011;38518;53.164;5.430;2023-12-20T05:07:18;25.35;;;7.20;;
51618;SDS011;38518;53.164;5.430;2023-12-20T05:09:44;34.40;;;6.18;;
51618;SDS011;38518;53.164;5.430;2023-12-20T05:12:10;26.15;;;5.97;;
51618;SDS011;38518;53.164;5.430;2023-12-20T05:14:35;26.48;;;7.10;;
51618;SDS011;38518;53.164;5.430;2023-12-20T05:17:01;27.65;;;5.65;;
51618;SDS011;38518;53.164;5.430;2023-12-20T05:19:28;22.08;;;5.78;;
51618;SDS011;38518;53.164;5.430;2023-12-20T05:21:54;35.10;;;7.50;;
51618;SDS011;38518;53.164;5.430;2023-12-20T05:24:20;26.55;;;6.72;;
51618;SDS011;38518;53.164;5.430;2023-12-20T05:26:46;30.45;;;6.50;;
51618;SDS011;38518;53.164;5.430;2023-12-20T05:29:12;32.75;;;7.88;;
51618;SDS011;38518;53.164;5.430;2023-12-20T05:31:38;26.15;;;6.40;;
51618;SDS011;38518;53.164;5.430;2023-12-20T05:34:03;29.05;;;7.65;;
51618;SDS011;38518;53.164;5.430;2023-12-20T05:36:31;29.13;;;8.15;;
51618;SDS011;38518;53.164;5.430;2023-12-20T05:38:56;35.33;;;6.63;;
51618;SDS011;38518;53.164;5.430;2023-12-20T05:41:22;36.70;;;6.78;;
51618;SDS011;38518;53.164;5.430;2023-12-20T05:43:48;28.65;;;8.13;;
51618;SDS011;38518;53.164;5.430;2023-12-20T05:46:13;30.92;;;5.55;;
51618;SDS011;38518;53.164;5.430;2023-12-20T05:48:39;30.70;;;7.63;;
51618;SDS011;38518;53.164;5.430;2023-12-20T05:51:05;29.92;;;7.22;;
51618;SDS011;38518;53.164;5.430;2023-12-20T05:53:31;33.75;;;6.30;;
51618;SDS011;38518;53.164;5.430;2023-12-20T05:55:57;35.97;;;8.52;;
51618;SDS011;38518;53.164;5.430;2023-12-20T05:58:22;27.77;;;6.70;;
51618;SDS011;38518;53.164;5.430;2023-12-20T06:00:48;31.85;;;7.68;;
51618;SDS011;38518;53.164;5.430;2023-12-20T06:03:14;30.63;;;7.30;;
51618;SDS011;38518;53.164;5.430;2023-12-20T06:05:40;23.58;;;5.57;;
51618;SDS011;38518;53.164;5.430;2023-12-20T06:08:06;34.00;;;7.38;;
51618;SDS011;38518;53.164;5.430;2023-12-20T06:10:32;35.20;;;7.57;;
51618;SDS011;38518;53.164;5.430;2023-12-20T06:12:58;40.40;;;8.77;;
51618;SDS011;38518;53.164;5.430;2023-12-20T06:15:25;27.40;;;8.02;;
51618;SDS011;38518;53.164;5.430;2023-12-20T06:17:51;39.88;;;7.85;;
51618;SDS011;38518;53.164;5.430;2023-12-20T06:20:17;29.73;;;6.20;;
51618;SDS011;38518;53.164;5.430;2023-12-20T06:22:43;31.50;;;7.93;;
51618;SDS011;38518;53.164;5.430;2023-12-20T06:25:09;22.80;;;6.05;;
51618;SDS011;38518;53.164;5.430;2023-12-20T06:27:34;24.88;;;7.45;;
51618;SDS011;38518;53.164;5.430;2023-12-20T06:30:00;34.75;;;8.90;;
51618;SDS011;38518;53.164;5.430;2023-12-20T06:32:26;33.95;;;7.38;;
51618;SDS011;38518;53.164;5.430;2023-12-20T06:34:54;35.00;;;8.57;;
51618;SDS011;38518;53.164;5.430;2023-12-20T06:37:20;31.40;;;8.45;;
51618;SDS011;38518;53.164;5.430;2023-12-20T06:39:45;33.95;;;8.20;;
51618;SDS011;38518;53.164;5.430;2023-12-20T06:42:12;26.30;;;6.82;;
51618;SDS011;38518;53.164;5.430;2023-12-20T06:44:38;35.83;;;9.35;;
51618;SDS011;38518;53.164;5.430;2023-12-20T06:47:04;31.65;;;9.25;;
51618;SDS011;38518;53.164;5.430;2023-12-20T06:49:30;31.83;;;8.23;;
51618;SDS011;38518;53.164;5.430;2023-12-20T06:51:56;26.40;;;6.65;;
51618;SDS011;38518;53.164;5.430;2023-12-20T06:54:22;31.00;;;6.47;;
51618;SDS011;38518;53.164;5.430;2023-12-20T06:56:53;31.00;;;7.05;;
51618;SDS011;38518;53.164;5.430;2023-12-20T06:59:19;32.20;;;6.97;;
51618;SDS011;38518;53.164;5.430;2023-12-20T07:01:48;33.50;;;8.20;;
51618;SDS011;38518;53.164;5.430;2023-12-20T07:04:15;29.98;;;8.40;;
51618;SDS011;38518;53.164;5.430;2023-12-20T07:06:41;32.17;;;7.93;;
51618;SDS011;38518;53.164;5.430;2023-12-20T07:09:07;30.95;;;5.90;;
51618;SDS011;38518;53.164;5.430;2023-12-20T07:11:35;28.52;;;7.10;;
51618;SDS011;38518;53.164;5.430;2023-12-20T07:14:04;29.88;;;8.15;;
51618;SDS011;38518;53.164;5.430;2023-12-20T07:16:29;33.15;;;7.90;;
51618;SDS011;38518;53.164;5.430;2023-12-20T07:18:55;29.15;;;8.45;;
51618;SDS011;38518;53.164;5.430;2023-12-20T07:21:22;33.95;;;8.85;;
51618;SDS011;38518;53.164;5.430;2023-12-20T07:23:48;29.27;;;5.93;;
51618;SDS011;38518;53.164;5.430;2023-12-20T07:26:14;32.35;;;8.32;;
51618;SDS011;38518;53.164;5.430;2023-12-20T07:28:43;20.45;;;6.15;;
51618;SDS011;38518;53.164;5.430;2023-12-20T07:31:08;30.48;;;6.20;;
51618;SDS011;38518;53.164;5.430;2023-12-20T07:33:34;30.35;;;8.13;;
51618;SDS011;38518;53.164;5.430;2023-12-20T07:36:00;34.03;;;7.15;;
51618;SDS011;38518;53.164;5.430;2023-12-20T07:38:29;36.13;;;6.60;;
51618;SDS011;38518;53.164;5.430;2023-12-20T07:40:55;30.55;;;6.78;;
51618;SDS011;38518;53.164;5.430;2023-12-20T07:43:20;38.35;;;9.40;;
51618;SDS011;38518;53.164;5.430;2023-12-20T07:45:46;34.10;;;8.10;;
51618;SDS011;38518;53.164;5.430;2023-12-20T07:48:12;31.60;;;8.73;;
51618;SDS011;38518;53.164;5.430;2023-12-20T07:50:38;33.15;;;6.00;;
51618;SDS011;38518;53.164;5.430;2023-12-20T07:53:04;34.72;;;8.25;;
51618;SDS011;38518;53.164;5.430;2023-12-20T07:55:29;30.30;;;8.20;;
51618;SDS011;38518;53.164;5.430;2023-12-20T07:57:56;38.22;;;9.10;;
51618;SDS011;38518;53.164;5.430;2023-12-20T08:00:22;27.33;;;6.40;;
51618;SDS011;38518;53.164;5.430;2023-12-20T08:02:48;31.35;;;7.50;;
51618;SDS011;38518;53.164;5.430;2023-12-20T08:05:14;31.70;;;8.15;;
51618;SDS011;38518;53.164;5.430;2023-12-20T08:07:40;33.95;;;7.88;;
51618;SDS011;38518;53.164;5.430;2023-12-20T08:10:05;31.17;;;6.88;;
51618;SDS011;38518;53.164;5.430;2023-12-20T08:12:32;33.88;;;7.63;;
51618;SDS011;38518;53.164;5.430;2023-12-20T08:14:58;30.58;;;7.80;;
51618;SDS011;38518;53.164;5.430;2023-12-20T08:17:24;29.98;;;6.82;;
51618;SDS011;38518;53.164;5.430;2023-12-20T08:19:50;27.73;;;7.28;;
51618;SDS011;38518;53.164;5.430;2023-12-20T08:22:16;23.83;;;5.50;;
51618;SDS011;38518;53.164;5.430;2023-12-20T08:24:45;26.55;;;5.30;;
51618;SDS011;38518;53.164;5.430;2023-12-20T08:27:11;26.10;;;6.00;;
51618;SDS011;38518;53.164;5.430;2023-12-20T08:29:37;36.38;;;8.20;;
51618;SDS011;38518;53.164;5.430;2023-12-20T08:32:02;31.05;;;6.57;;
51618;SDS011;38518;53.164;5.430;2023-12-20T08:34:28;32.17;;;7.93;;
51618;SDS011;38518;53.164;5.430;2023-12-20T08:36:54;37.45;;;7.72;;
51618;SDS011;38518;53.164;5.430;2023-12-20T08:39:20;38.92;;;9.18;;
51618;SDS011;38518;53.164;5.430;2023-12-20T08:41:46;44.72;;;8.60;;
51618;SDS011;38518;53.164;5.430;2023-12-20T08:44:12;23.42;;;5.40;;
51618;SDS011;38518;53.164;5.430;2023-12-20T08:46:40;33.17;;;7.18;;
51618;SDS011;38518;53.164;5.430;2023-12-20T08:49:06;32.22;;;7.78;;
51618;SDS011;38518;53.164;5.430;2023-12-20T08:51:33;34.92;;;6.97;;
51618;SDS011;38518;53.164;5.430;2023-12-20T08:53:59;35.72;;;8.20;;
51618;SDS011;38518;53.164;5.430;2023-12-20T08:56:25;21.52;;;4.50;;
51618;SDS011;38518;53.164;5.430;2023-12-20T08:58:50;24.35;;;5.30;;
51618;SDS011;38518;53.164;5.430;2023-12-20T09:01:16;20.58;;;4.30;;
51618;SDS011;38518;53.164;5.430;2023-12-20T09:03:42;17.83;;;4.45;;
51618;SDS011;38518;53.164;5.430;2023-12-20T09:06:08;23.25;;;5.10;;
51618;SDS011;38518;53.164;5.430;2023-12-20T09:08:34;21.92;;;4.82;;
51618;SDS011;38518;53.164;5.430;2023-12-20T09:11:00;14.93;;;3.47;;
51618;SDS011;38518;53.164;5.430;2023-12-20T09:13:25;18.80;;;3.67;;
51618;SDS011;38518;53.164;5.430;2023-12-20T09:15:57;19.98;;;4.43;;
51618;SDS011;38518;53.164;5.430;2023-12-20T09:18:23;19.30;;;4.90;;
51618;SDS011;38518;53.164;5.430;2023-12-20T09:20:49;21.30;;;4.82;;
51618;SDS011;38518;53.164;5.430;2023-12-20T09:23:15;17.10;;;4.53;;
51618;SDS011;38518;53.164;5.430;2023-12-20T09:25:42;21.35;;;4.93;;
51618;SDS011;38518;53.164;5.430;2023-12-20T09:28:07;12.95;;;3.30;;
51618;SDS011;38518;53.164;5.430;2023-12-20T09:30:33;16.23;;;3.33;;
51618;SDS011;38518;53.164;5.430;2023-12-20T09:33:00;13.05;;;3.67;;
51618;SDS011;38518;53.164;5.430;2023-12-20T09:35:26;13.45;;;4.10;;
51618;SDS011;38518;53.164;5.430;2023-12-20T09:37:52;17.90;;;4.15;;
51618;SDS011;38518;53.164;5.430;2023-12-20T09:40:18;18.95;;;3.65;;
51618;SDS011;38518;53.164;5.430;2023-12-20T09:42:47;19.52;;;4.35;;
51618;SDS011;38518;53.164;5.430;2023-12-20T09:45:14;20.10;;;4.50;;
51618;SDS011;38518;53.164;5.430;2023-12-20T09:47:43;20.63;;;4.03;;
51618;SDS011;38518;53.164;5.430;2023-12-20T09:50:09;12.70;;;3.08;;
51618;SDS011;38518;53.164;5.430;2023-12-20T09:52:36;15.77;;;3.65;;
51618;SDS011;38518;53.164;5.430;2023-12-20T09:55:04;17.50;;;4.18;;
51618;SDS011;38518;53.164;5.430;2023-12-20T09:57:33;16.45;;;4.25;;
51618;SDS011;38518;53.164;5.430;2023-12-20T09:59:59;18.90;;;3.83;;
51618;SDS011;38518;53.164;5.430;2023-12-20T10:02:25;15.02;;;4.28;;
51618;SDS011;38518;53.164;5.430;2023-12-20T10:04:52;19.80;;;4.00;;
51618;SDS011;38518;53.164;5.430;2023-12-20T10:07:19;14.65;;;3.70;;
51618;SDS011;38518;53.164;5.430;2023-12-20T10:09:46;20.35;;;5.03;;
51618;SDS011;38518;53.164;5.430;2023-12-20T10:12:13;18.52;;;3.78;;
51618;SDS011;38518;53.164;5.430;2023-12-20T10:14:38;16.23;;;4.10;;
51618;SDS011;38518;53.164;5.430;2023-12-20T10:17:05;16.58;;;4.10;;
51618;SDS011;38518;53.164;5.430;2023-12-20T10:19:32;13.80;;;3.55;;
51618;SDS011;38518;53.164;5.430;2023-12-20T10:22:04;18.45;;;3.40;;
51618;SDS011;38518;53.164;5.430;2023-12-20T10:24:30;18.42;;;3.75;;
51618;SDS011;38518;53.164;5.430;2023-12-20T10:29:35;11.88;;;3.00;;
51618;SDS011;38518;53.164;5.430;2023-12-20T10:34:50;18.60;;;4.75;;
51618;SDS011;38518;53.164;5.430;2023-12-20T10:37:16;20.55;;;5.18;;
51618;SDS011;38518;53.164;5.430;2023-12-20T10:39:43;16.52;;;3.63;;
51618;SDS011;38518;53.164;5.430;2023-12-20T10:42:12;15.75;;;4.07;;
51618;SDS011;38518;53.164;5.430;2023-12-20T10:44:39;21.45;;;4.78;;
51618;SDS011;38518;53.164;5.430;2023-12-20T10:47:05;15.52;;;4.35;;
51618;SDS011;38518;53.164;5.430;2023-12-20T10:49:34;22.83;;;4.55;;
51618;SDS011;38518;53.164;5.430;2023-12-20T10:52:02;21.00;;;4.88;;
51618;SDS011;38518;53.164;5.430;2023-12-20T10:54:29;15.00;;;3.92;;
51618;SDS011;38518;53.164;5.430;2023-12-20T10:56:55;21.77;;;4.68;;
51618;SDS011;38518;53.164;5.430;2023-12-20T10:59:23;18.73;;;4.47;;
51618;SDS011;38518;53.164;5.430;2023-12-20T11:01:50;20.10;;;3.92;;
51618;SDS011;38518;53.164;5.430;2023-12-20T11:04:19;24.30;;;5.63;;
51618;SDS011;38518;53.164;5.430;2023-12-20T11:06:50;22.45;;;4.45;;
51618;SDS011;38518;53.164;5.430;2023-12-20T11:09:25;20.42;;;4.13;;
51618;SDS011;38518;53.164;5.430;2023-12-20T11:12:09;20.70;;;4.72;;
51618;SDS011;38518;53.164;5.430;2023-12-20T11:17:11;23.25;;;5.60;;
51618;SDS011;38518;53.164;5.430;2023-12-20T11:20:12;23.25;;;4.38;;
51618;SDS011;38518;53.164;5.430;2023-12-20T11:22:32;17.67;;;3.63;;
51618;SDS011;38518;53.164;5.430;2023-12-20T11:25:09;21.60;;;5.10;;
51618;SDS011;38518;53.164;5.430;2023-12-20T11:27:36;22.17;;;4.70;;
51618;SDS011;38518;53.164;5.430;2023-12-20T11:30:07;22.45;;;5.60;;
51618;SDS011;38518;53.164;5.430;2023-12-20T11:32:34;20.48;;;5.28;;
51618;SDS011;38518;53.164;5.430;2023-12-20T11:37:37;21.13;;;4.45;;
51618;SDS011;38518;53.164;5.430;2023-12-20T11:40:07;12.63;;;3.58;;
51618;SDS011;38518;53.164;5.430;2023-12-20T11:42:39;18.42;;;4.13;;
51618;SDS011;38518;53.164;5.430;2023-12-20T11:45:09;13.73;;;2.85;;
51618;SDS011;38518;53.164;5.430;2023-12-20T11:47:36;11.98;;;3.63;;
51618;SDS011;38518;53.164;5.430;2023-12-20T11:50:02;14.60;;;3.70;;
51618;SDS011;38518;53.164;5.430;2023-12-20T11:52:29;10.93;;;2.97;;
51618;SDS011;38518;53.164;5.430;2023-12-20T11:54:55;11.93;;;2.67;;
51618;SDS011;38518;53.164;5.430;2023-12-20T11:57:22;11.30;;;3.47;;
51618;SDS011;38518;53.164;5.430;2023-12-20T11:59:47;12.38;;;3.60;;
51618;SDS011;38518;53.164;5.430;2023-12-20T12:02:13;16.92;;;3.70;;
51618;SDS011;38518;53.164;5.430;2023-12-20T12:04:43;14.23;;;3.72;;
51618;SDS011;38518;53.164;5.430;2023-12-20T12:07:09;12.23;;;3.17;;
51618;SDS011;38518;53.164;5.430;2023-12-20T12:09:34;12.68;;;3.83;;
51618;SDS011;38518;53.164;5.430;2023-12-20T12:12:00;8.95;;;2.60;;
51618;SDS011;38518;53.164;5.430;2023-12-20T12:14:26;11.43;;;3.38;;
51618;SDS011;38518;53.164;5.430;2023-12-20T12:16:53;13.73;;;2.83;;
51618;SDS011;38518;53.164;5.430;2023-12-20T12:19:22;11.75;;;3.35;;
51618;SDS011;38518;53.164;5.430;2023-12-20T12:22:05;11.40;;;3.03;;
51618;SDS011;38518;53.164;5.430;2023-12-20T12:24:33;14.82;;;3.15;;
51618;SDS011;38518;53.164;5.430;2023-12-20T12:26:59;10.73;;;2.58;;
51618;SDS011;38518;53.164;5.430;2023-12-20T12:29:25;13.43;;;2.72;;
51618;SDS011;38518;53.164;5.430;2023-12-20T12:31:51;13.25;;;3.83;;
51618;SDS011;38518;53.164;5.430;2023-12-20T12:34:17;16.35;;;4.22;;
51618;SDS011;38518;53.164;5.430;2023-12-20T12:36:43;16.20;;;3.72;;
51618;SDS011;38518;53.164;5.430;2023-12-20T12:39:09;16.85;;;3.58;;
51618;SDS011;38518;53.164;5.430;2023-12-20T12:41:37;12.73;;;3.03;;
51618;SDS011;38518;53.164;5.430;2023-12-20T12:44:03;12.50;;;3.38;;
51618;SDS011;38518;53.164;5.430;2023-12-20T12:46:28;10.27;;;2.58;;
51618;SDS011;38518;53.164;5.430;2023-12-20T12:48:54;12.32;;;2.38;;
51618;SDS011;38518;53.164;5.430;2023-12-20T12:51:20;13.82;;;4.78;;
51618;SDS011;38518;53.164;5.430;2023-12-20T12:53:46;18.77;;;2.85;;
51618;SDS011;38518;53.164;5.430;2023-12-20T12:56:12;15.02;;;3.92;;
51618;SDS011;38518;53.164;5.430;2023-12-20T12:58:39;18.30;;;4.47;;
51618;SDS011;38518;53.164;5.430;2023-12-20T13:01:04;18.73;;;3.95;;
51618;SDS011;38518;53.164;5.430;2023-12-20T13:03:30;13.07;;;3.85;;
51618;SDS011;38518;53.164;5.430;2023-12-20T13:05:56;11.35;;;3.30;;
51618;SDS011;38518;53.164;5.430;2023-12-20T13:08:22;11.88;;;2.88;;
51618;SDS011;38518;53.164;5.430;2023-12-20T13:10:48;12.40;;;3.50;;
51618;SDS011;38518;53.164;5.430;2023-12-20T13:13:14;12.70;;;3.15;;
51618;SDS011;38518;53.164;5.430;2023-12-20T13:15:40;12.55;;;2.40;;
51618;SDS011;38518;53.164;5.430;2023-12-20T13:18:06;10.52;;;3.28;;
51618;SDS011;38518;53.164;5.430;2023-12-20T13:20:32;11.32;;;3.00;;
51618;SDS011;38518;53.164;5.430;2023-12-20T13:22:58;12.85;;;3.05;;
51618;SDS011;38518;53.164;5.430;2023-12-20T13:25:24;12.40;;;3.60;;
51618;SDS011;38518;53.164;5.430;2023-12-20T13:27:50;10.02;;;3.10;;
51618;SDS011;38518;53.164;5.430;2023-12-20T13:30:16;11.70;;;2.65;;
51618;SDS011;38518;53.164;5.430;2023-12-20T13:32:42;14.73;;;4.90;;
51618;SDS011;38518;53.164;5.430;2023-12-20T13:35:08;14.52;;;7.93;;
51618;SDS011;38518;53.164;5.430;2023-12-20T13:37:34;16.88;;;5.15;;
51618;SDS011;38518;53.164;5.430;2023-12-20T13:40:00;13.18;;;3.15;;
51618;SDS011;38518;53.164;5.430;2023-12-20T13:42:29;18.40;;;4.47;;
51618;SDS011;38518;53.164;5.430;2023-12-20T13:44:54;17.30;;;3.95;;
51618;SDS011;38518;53.164;5.430;2023-12-20T13:47:21;25.23;;;6.10;;
51618;SDS011;38518;53.164;5.430;2023-12-20T13:49:46;21.85;;;5.50;;
51618;SDS011;38518;53.164;5.430;2023-12-20T13:52:12;22.65;;;5.63;;
51618;SDS011;38518;53.164;5.430;2023-12-20T13:54:38;25.05;;;6.13;;
51618;SDS011;38518;53.164;5.430;2023-12-20T13:57:06;28.73;;;6.35;;
51618;SDS011;38518;53.164;5.430;2023-12-20T13:59:32;27.50;;;6.75;;
51618;SDS011;38518;53.164;5.430;2023-12-20T14:01:58;29.30;;;6.25;;
51618;SDS011;38518;53.164;5.430;2023-12-20T14:04:26;25.00;;;5.30;;
51618;SDS011;38518;53.164;5.430;2023-12-20T14:06:52;23.58;;;6.57;;
51618;SDS011;38518;53.164;5.430;2023-12-20T14:09:17;24.25;;;6.55;;
51618;SDS011;38518;53.164;5.430;2023-12-20T14:11:43;24.60;;;5.90;;
51618;SDS011;38518;53.164;5.430;2023-12-20T14:14:09;23.48;;;6.43;;
51618;SDS011;38518;53.164;5.430;2023-12-20T14:16:35;29.45;;;6.97;;
51618;SDS011;38518;53.164;5.430;2023-12-20T14:19:01;25.00;;;6.70;;
51618;SDS011;38518;53.164;5.430;2023-12-20T14:21:28;19.33;;;4.90;;
51618;SDS011;38518;53.164;5.430;2023-12-20T14:23:54;24.20;;;6.07;;
51618;SDS011;38518;53.164;5.430;2023-12-20T14:26:20;18.50;;;4.57;;
51618;SDS011;38518;53.164;5.430;2023-12-20T14:28:46;25.40;;;6.03;;
51618;SDS011;38518;53.164;5.430;2023-12-20T14:31:11;23.17;;;5.85;;
51618;SDS011;38518;53.164;5.430;2023-12-20T14:33:37;22.48;;;6.03;;
51618;SDS011;38518;53.164;5.430;2023-12-20T14:36:04;17.88;;;4.38;;
51618;SDS011;38518;53.164;5.430;2023-12-20T14:38:33;25.58;;;6.18;;
51618;SDS011;38518;53.164;5.430;2023-12-20T14:41:00;26.95;;;6.47;;
51618;SDS011;38518;53.164;5.430;2023-12-20T14:43:28;29.60;;;6.55;;
51618;SDS011;38518;53.164;5.430;2023-12-20T14:45:54;30.48;;;6.63;;
51618;SDS011;38518;53.164;5.430;2023-12-20T14:48:20;31.45;;;6.75;;
51618;SDS011;38518;53.164;5.430;2023-12-20T14:50:46;20.63;;;5.43;;